Accueil
Images satellite Prévisions 15 joursClimatMétéo marine Cyclones Foudre AéroportsFAQ Actualités A propos
Météo : Europe Afrique Amérique du Nord Amérique du Sud Asie Australie-Océanie Autres
Langues Contact

Florennes, Belgique

Base aérienne

latitude: 50-14N, longitude: 004-39E, altitude: 279 m


METAR: EBFS 222225Z VRB03KT 9999 FEW045 SCT230 20/17 Q1020 BLU
short-TAF: EBFS 221541Z 2219/2307 02006KT 9999 FEW035 SCT250 BECMG 2303/2306 04004KT 9999 SCT060 SCT250 PROB30 TEMPO 2304/2306 5000 BR/MIFG
long-TAF: EBFS 221541Z 2219/2307 02006KT 9999 FEW035 SCT250 BECMG 2303/2306 04004KT 9999 SCT060 SCT250 PROB30 TEMPO 2304/2306 5000 BR/MIFG

Heure: 00:59 (22:59 UTC)

Observation

Le bulletin a été fait il y a 33 minutes, à 22:25 UTC  
Vent 03 kt de direction variable
Température 20°C
Humidité 83%
Pression 1020 hPa
Visibilité 10 km ou plus
Quelques nuages à une hauteur de 4500 ft
Nuages épars à une hauteur de 23000 ft

Changer d'unités

Prévision

Le bulletin a été fait il y a 7 heures et 10 minutes, à 15:48 UTC  
Prévision valable du 22 à 19 UTC au 23 à 07 UTC
Vent 06 kt de nord/nord-est
Visibilité 10 km ou plus
Quelques nuages à une hauteur de 3500 ft
Nuages épars à une hauteur de 25000 ft
Evoluant progressivement
du 23 à 03 UTC au 23 à 06 UTC
Vent 04 kt de nord-est
Visibilité 10 km ou plus
Nuages épars à une hauteur de 6000 ft
Nuages épars à une hauteur de 25000 ft
Probabilité 30% :
Temporairement
du 23 à 04 UTC au 23 à 06 UTC
Visibilité 5000 m

Prévision

Le bulletin a été fait il y a 7 heures et 8 minutes, à 15:51 UTC  
Prévision valable du 22 à 19 UTC au 23 à 07 UTC
Vent 06 kt de nord/nord-est
Visibilité 10 km ou plus
Quelques nuages à une hauteur de 3500 ft
Nuages épars à une hauteur de 25000 ft
Evoluant progressivement
du 23 à 03 UTC au 23 à 06 UTC
Vent 04 kt de nord-est
Visibilité 10 km ou plus
Nuages épars à une hauteur de 6000 ft
Nuages épars à une hauteur de 25000 ft
Probabilité 30% :
Temporairement
du 23 à 04 UTC au 23 à 06 UTC
Visibilité 5000 m
Les informations qui figurent sur ce site font l'objet d'une clause de non-responsabilité
Météo : Europe Afrique Amérique du Nord Amérique du Sud Asie Australie-Océanie Autres
Images satellite Prévisions 15 joursClimatMétéo marine Cyclones Foudre AéroportsFAQ Langues Contact Actualités A propos